Time;durP1;ratioP1;P1;durP2;ratioP2;P2;SDS_P1;SDS_P2;PMS_P1;PMS_P2;Temp;Humidity;BMP_temperature;BMP_pressure;BME280_temperature;BME280_humidity;BME280_pressure;Samples;Min_cycle;Max_cycle;Signal;HPM_P1;HPM_P2
2023/12/25 00:01:23;;;;;;;16.98;3.38;;;;;;;8.63;100.00;99030.81;5018767;28;20200;-46
2023/12/25 00:03:48;;;;;;;25.80;4.40;;;;;;;8.58;100.00;99048.06;5017285;28;20328;-43
2023/12/25 00:06:14;;;;;;;21.95;4.13;;;;;;;8.75;100.00;99039.06;5022058;28;20649;-44
2023/12/25 00:08:40;;;;;;;18.15;3.53;;;;;;;8.74;100.00;99032.84;5018545;28;20210;-44
2023/12/25 00:11:05;;;;;;;20.73;4.30;;;;;;;8.74;100.00;99042.69;5017708;28;20605;-43
2023/12/25 00:13:30;;;;;;;22.60;3.78;;;;;;;8.72;100.00;99028.56;5015938;28;20196;-44
2023/12/25 00:15:56;;;;;;;19.70;4.10;;;;;;;8.66;100.00;99043.16;5022874;28;20536;-42
2023/12/25 00:18:21;;;;;;;21.77;4.93;;;;;;;8.66;100.00;99043.16;5015048;28;20345;-44
2023/12/25 00:20:47;;;;;;;27.02;4.00;;;;;;;8.64;100.00;99053.91;5017297;28;20210;-44
2023/12/25 00:23:12;;;;;;;23.65;4.18;;;;;;;8.63;100.00;99043.31;5023683;28;20317;-44
2023/12/25 00:25:38;;;;;;;23.30;4.13;;;;;;;8.70;100.00;99033.13;5018629;28;20214;-43
2023/12/25 00:28:03;;;;;;;18.30;4.15;;;;;;;8.65;100.00;99046.75;5020641;28;20208;-44
2023/12/25 00:30:29;;;;;;;19.77;3.83;;;;;;;8.65;100.00;99038.75;5020840;28;20180;-45
2023/12/25 00:32:54;;;;;;;24.58;4.93;;;;;;;8.68;100.00;99045.72;5004182;28;20212;-44
2023/12/25 00:35:20;;;;;;;23.20;4.45;;;;;;;8.63;100.00;99059.34;4999981;28;20191;-43
2023/12/25 00:37:45;;;;;;;25.38;4.60;;;;;;;8.52;100.00;99053.75;5020194;28;20192;-43
2023/12/25 00:40:11;;;;;;;22.55;5.00;;;;;;;8.52;100.00;99078.63;5020014;28;20180;-44
2023/12/25 00:42:36;;;;;;;24.33;4.95;;;;;;;8.58;100.00;99083.63;5005695;28;20207;-43
2023/12/25 00:45:02;;;;;;;25.77;4.70;;;;;;;8.67;100.00;99050.19;5016754;28;20319;-42
2023/12/25 00:47:27;;;;;;;29.83;4.25;;;;;;;8.66;100.00;99054.69;5017974;28;20184;-43
2023/12/25 00:49:53;;;;;;;29.30;4.57;;;;;;;8.63;100.00;99059.34;5018843;28;20754;-45
2023/12/25 00:52:19;;;;;;;21.60;4.43;;;;;;;8.67;100.00;99079.56;5015862;28;20750;-44
2023/12/25 00:54:45;;;;;;;22.02;4.43;;;;;;;8.66;100.00;99069.84;5021699;28;20186;-45
2023/12/25 00:57:12;;;;;;;17.05;3.88;;;;;;;8.68;100.00;99085.75;5016895;28;20280;-43
2023/12/25 00:59:37;;;;;;;19.77;4.35;;;;;;;8.64;100.00;99064.59;5020559;28;20183;-43
2023/12/25 01:02:03;;;;;;;21.23;4.22;;;;;;;8.65;100.00;99109.00;5018457;28;20196;-42
2023/12/25 01:04:28;;;;;;;21.15;4.38;;;;;;;8.73;100.00;99076.53;5008815;28;20183;-44
2023/12/25 01:06:54;;;;;;;16.45;3.63;;;;;;;8.62;100.00;99087.84;5002364;28;20250;-44
2023/12/25 01:09:19;;;;;;;16.73;3.72;;;;;;;8.67;100.00;99079.56;5015369;28;20211;-43
2023/12/25 01:11:45;;;;;;;15.90;3.58;;;;;;;8.70;100.00;99094.53;5017820;28;20206;-44
2023/12/25 01:14:11;;;;;;;21.88;4.10;;;;;;;8.68;100.00;99113.34;4998083;28;20238;-45
2023/12/25 01:16:37;;;;;;;25.23;4.63;;;;;;;8.65;100.00;99094.81;5003927;28;20211;-42
2023/12/25 01:19:03;;;;;;;23.45;4.18;;;;;;;8.68;100.00;99102.66;5005728;28;20175;-44
2023/12/25 01:21:32;;;;;;;24.17;4.10;;;;;;;8.66;100.00;99081.38;5008579;28;20210;-41
2023/12/25 01:23:58;;;;;;;17.58;4.20;;;;;;;8.68;100.00;99105.34;5006424;28;20303;-42
2023/12/25 01:26:23;;;;;;;18.73;4.25;;;;;;;8.68;100.00;99102.66;5002325;28;20172;-43
2023/12/25 01:28:49;;;;;;;23.33;4.25;;;;;;;8.57;100.00;99089.94;5021646;28;20207;-42
2023/12/25 01:31:17;;;;;;;17.83;4.30;;;;;;;8.48;100.00;99101.13;5018988;28;20265;-43
2023/12/25 01:33:42;;;;;;;24.65;4.30;;;;;;;8.43;100.00;99100.53;5002404;28;20218;-44
2023/12/25 01:36:08;;;;;;;19.42;4.07;;;;;;;8.41;100.00;99108.63;5020140;28;20176;-45
2023/12/25 01:38:34;;;;;;;24.20;3.88;;;;;;;8.44;100.00;99120.94;5005718;28;20616;-42
2023/12/25 01:40:59;;;;;;;25.83;4.60;;;;;;;8.44;100.00;99115.59;5019639;28;20172;-45
2023/12/25 01:43:25;;;;;;;22.98;5.13;;;;;;;8.45;100.00;99125.31;5020489;28;20208;-44
2023/12/25 01:45:50;;;;;;;24.63;5.22;;;;;;;8.36;100.00;99133.81;5002309;28;20260;-42
2023/12/25 01:48:16;;;;;;;20.10;3.65;;;;;;;8.21;100.00;99136.38;5016721;28;20540;-44
2023/12/25 01:50:43;;;;;;;21.48;3.90;;;;;;;8.03;100.00;99127.59;5018100;28;20237;-44
2023/12/25 01:53:09;;;;;;;18.70;3.75;;;;;;;7.83;100.00;99165.19;5016643;28;20223;-42
2023/12/25 01:55:36;;;;;;;13.82;2.88;;;;;;;7.67;100.00;99126.94;5016948;28;20211;-44
2023/12/25 01:58:01;;;;;;;13.20;2.42;;;;;;;7.68;100.00;99140.19;5002064;28;20734;-43
2023/12/25 02:00:27;;;;;;;23.50;4.03;;;;;;;7.64;100.00;99139.47;4998527;28;20274;-43
2023/12/25 02:02:52;;;;;;;21.08;3.50;;;;;;;7.59;100.00;99149.53;5018720;28;20200;-44
2023/12/25 02:05:18;;;;;;;24.67;3.92;;;;;;;7.68;100.00;99163.34;5005271;28;20271;-43
2023/12/25 02:07:45;;;;;;;21.23;4.35;;;;;;;7.64;100.00;99179.47;5004061;28;20188;-44
2023/12/25 02:10:10;;;;;;;22.08;4.38;;;;;;;7.59;100.00;99183.34;5006192;28;20549;-45
2023/12/25 02:12:36;;;;;;;21.15;4.93;;;;;;;7.62;100.00;99180.50;5019076;28;20267;-45
2023/12/25 02:15:05;;;;;;;25.75;4.72;;;;;;;7.62;100.00;99172.50;5017923;28;20205;-44
2023/12/25 02:17:31;;;;;;;21.30;4.57;;;;;;;7.66;100.00;99176.72;5010172;28;20239;-44
2023/12/25 02:19:57;;;;;;;27.00;4.70;;;;;;;7.72;100.00;99187.06;5006567;28;20956;-44
2023/12/25 02:22:24;;;;;;;22.05;4.95;;;;;;;7.72;100.00;99205.75;5002723;28;20689;-44
2023/12/25 02:25:02;;;;;;;25.95;3.95;;;;;;;7.56;100.00;99194.13;5019481;28;20235;-43
2023/12/25 02:27:29;;;;;;;22.23;4.05;;;;;;;7.46;100.00;99192.91;5004941;28;20191;-44
2023/12/25 02:29:55;;;;;;;14.77;3.78;;;;;;;7.41;100.00;99191.34;5019036;28;20183;-45
2023/12/25 02:32:21;;;;;;;16.52;3.50;;;;;;;7.31;100.00;99183.91;5010030;28;20670;-45
2023/12/25 02:34:47;;;;;;;23.40;4.07;;;;;;;7.34;100.00;99181.91;5004515;28;20180;-43
2023/12/25 02:37:14;;;;;;;21.70;5.00;;;;;;;7.37;100.00;99188.91;5014954;28;20196;-45
2023/12/25 02:39:40;;;;;;;26.13;4.07;;;;;;;7.39;100.00;99190.56;5002037;28;20180;-43
2023/12/25 02:42:05;;;;;;;23.15;4.35;;;;;;;7.50;100.00;99205.09;5021243;28;20359;-43
2023/12/25 02:44:31;;;;;;;19.67;3.53;;;;;;;7.53;100.00;99196.97;5011237;28;20181;-45
2023/12/25 02:46:56;;;;;;;28.10;4.78;;;;;;;7.53;100.00;99203.16;5007992;28;20196;-47
2023/12/25 02:49:22;;;;;;;25.58;4.30;;;;;;;7.55;100.00;99200.41;5020241;28;20207;-45
2023/12/25 02:51:48;;;;;;;24.98;4.68;;;;;;;7.55;100.00;99205.75;5010610;28;20538;-45
2023/12/25 02:54:13;;;;;;;27.40;5.00;;;;;;;7.58;100.00;99209.09;5024708;28;20641;-44
2023/12/25 02:56:40;;;;;;;22.88;4.85;;;;;;;7.59;100.00;99207.31;5009187;28;20628;-44
2023/12/25 02:59:05;;;;;;;25.98;4.70;;;;;;;7.58;100.00;99195.78;5019794;28;20647;-44
2023/12/25 03:01:30;;;;;;;18.55;4.43;;;;;;;7.59;100.00;99191.34;5019432;28;20218;-43
2023/12/25 03:03:57;;;;;;;22.52;4.53;;;;;;;7.53;100.00;99199.63;5010499;28;20216;-45
2023/12/25 03:06:23;;;;;;;19.88;4.07;;;;;;;7.40;100.00;99178.09;5020987;28;20195;-45
2023/12/25 03:08:48;;;;;;;25.63;4.97;;;;;;;7.49;100.00;99168.75;5018524;28;20299;-43
2023/12/25 03:11:13;;;;;;;25.15;5.22;;;;;;;7.43;100.00;99177.91;5007330;28;20204;-42
2023/12/25 03:13:39;;;;;;;31.50;5.43;;;;;;;7.41;100.00;99180.69;5018265;28;20203;-44
2023/12/25 03:16:06;;;;;;;29.48;5.13;;;;;;;7.34;100.00;99179.25;5004823;28;20246;-45
2023/12/25 03:18:32;;;;;;;28.60;5.88;;;;;;;7.32;100.00;99170.47;5021081;28;20271;-45
2023/12/25 03:20:57;;;;;;;23.95;6.07;;;;;;;7.29;100.00;99205.28;5020113;28;20280;-44
2023/12/25 03:23:23;;;;;;;27.30;4.90;;;;;;;7.30;100.00;99191.00;5006866;28;20291;-44
2023/12/25 03:25:48;;;;;;;29.67;5.35;;;;;;;7.34;100.00;99200.56;5022477;28;20208;-45
2023/12/25 03:28:14;;;;;;;29.90;5.05;;;;;;;7.33;100.00;99198.88;5008892;28;20655;-44
2023/12/25 03:30:39;;;;;;;27.35;5.22;;;;;;;7.30;100.00;99204.31;5020008;28;20298;-44
2023/12/25 03:33:07;;;;;;;31.52;5.30;;;;;;;7.35;100.00;99225.44;5010753;28;20200;-44
2023/12/25 03:35:33;;;;;;;27.13;4.93;;;;;;;7.31;100.00;99222.06;5018001;28;20177;-43
2023/12/25 03:37:59;;;;;;;23.77;4.40;;;;;;;7.31;100.00;99214.06;5022121;28;20215;-44
2023/12/25 03:40:24;;;;;;;26.38;4.85;;;;;;;7.23;100.00;99209.09;5023696;28;20184;-43
2023/12/25 03:42:50;;;;;;;25.52;6.10;;;;;;;7.31;100.00;99213.22;5017761;28;20204;-43
2023/12/25 03:45:15;;;;;;;17.23;4.28;;;;;;;7.18;100.00;99208.47;5024645;28;20651;-44
2023/12/25 03:47:42;;;;;;;22.50;4.10;;;;;;;7.13;100.00;99220.31;5015457;28;20195;-44
2023/12/25 03:50:08;;;;;;;25.98;4.45;;;;;;;7.10;100.00;99225.78;5001051;28;20637;-44
2023/12/25 03:52:33;;;;;;;20.52;3.85;;;;;;;7.03;100.00;99208.41;5020489;28;20689;-44
2023/12/25 03:54:58;;;;;;;23.48;3.90;;;;;;;7.00;100.00;99234.25;5017573;28;20180;-44
2023/12/25 03:57:24;;;;;;;26.13;5.15;;;;;;;6.97;100.00;99231.72;5005634;28;20219;-42
2023/12/25 03:59:49;;;;;;;23.13;4.50;;;;;;;6.93;100.00;99250.56;5004428;28;20314;-43
2023/12/25 04:02:15;;;;;;;30.38;5.13;;;;;;;6.94;100.00;99234.53;5007657;28;20429;-42
2023/12/25 04:04:41;;;;;;;40.92;6.00;;;;;;;6.91;100.00;99248.00;5020702;28;20229;-44
2023/12/25 04:07:06;;;;;;;42.65;6.30;;;;;;;6.95;100.00;99254.03;5021793;28;20467;-44
2023/12/25 04:09:32;;;;;;;43.00;7.38;;;;;;;6.97;100.00;99241.50;5004164;28;20226;-42
2023/12/25 04:11:57;;;;;;;41.15;6.85;;;;;;;6.97;100.00;99261.00;5021912;28;20669;-43
2023/12/25 04:14:23;;;;;;;40.28;7.60;;;;;;;6.99;100.00;99266.25;5005378;28;20200;-46
2023/12/25 04:16:48;;;;;;;43.67;6.65;;;;;;;6.96;100.00;99267.28;5017442;28;20212;-44
2023/12/25 04:19:14;;;;;;;37.40;6.72;;;;;;;6.96;100.00;99269.09;5003969;28;20270;-44
2023/12/25 04:21:39;;;;;;;35.30;6.78;;;;;;;6.90;100.00;99262.25;5005107;28;20176;-42
2023/12/25 04:24:05;;;;;;;34.75;6.60;;;;;;;6.94;100.00;99263.81;5006309;28;20191;-45
2023/12/25 04:26:30;;;;;;;46.63;6.35;;;;;;;6.92;100.00;99265.69;5019116;28;20188;-43
2023/12/25 04:28:56;;;;;;;35.42;6.78;;;;;;;6.85;100.00;99260.75;5017285;28;20325;-43
2023/12/25 04:31:22;;;;;;;38.78;7.45;;;;;;;6.88;100.00;99255.28;5003120;28;20185;-43
2023/12/25 04:33:48;;;;;;;45.78;7.00;;;;;;;6.92;100.00;99263.03;5003810;28;20260;-43
2023/12/25 04:36:13;;;;;;;42.78;6.68;;;;;;;6.92;100.00;99267.50;5017734;28;20201;-43
2023/12/25 04:38:39;;;;;;;28.95;6.22;;;;;;;7.04;100.00;99247.38;5017442;28;20184;-43
2023/12/25 04:41:06;;;;;;;38.78;6.35;;;;;;;6.97;100.00;99266.31;5005220;28;20172;-43
2023/12/25 04:43:32;;;;;;;38.38;6.75;;;;;;;6.95;100.00;99276.22;5009974;28;20625;-43
2023/12/25 04:45:58;;;;;;;36.05;6.60;;;;;;;6.96;100.00;99271.75;4994362;28;20208;-43
2023/12/25 04:48:24;;;;;;;34.30;6.38;;;;;;;6.93;100.00;99271.88;5020132;28;20246;-43
2023/12/25 04:50:49;;;;;;;47.03;7.65;;;;;;;6.86;100.00;99267.78;5007790;28;20176;-43
2023/12/25 04:53:15;;;;;;;27.75;5.70;;;;;;;6.87;100.00;99262.41;5019365;28;20231;-44
2023/12/25 04:55:41;;;;;;;31.10;5.97;;;;;;;6.90;100.00;99270.22;5004654;28;20234;-43
2023/12/25 04:58:07;;;;;;;35.08;6.65;;;;;;;6.93;100.00;99287.84;5005657;28;20219;-45
2023/12/25 05:00:33;;;;;;;35.28;6.57;;;;;;;6.87;100.00;99270.38;5006511;28;20785;-44
2023/12/25 05:02:59;;;;;;;36.95;6.65;;;;;;;6.88;100.00;99284.56;5015700;28;21201;-44
2023/12/25 05:05:25;;;;;;;36.83;6.70;;;;;;;6.77;100.00;99296.56;5018089;28;20188;-44
2023/12/25 05:07:51;;;;;;;36.25;6.35;;;;;;;6.86;100.00;99286.44;5016412;28;20601;-43
2023/12/25 05:10:17;;;;;;;39.13;7.15;;;;;;;6.85;100.00;99300.69;5005171;28;20226;-44
2023/12/25 05:12:42;;;;;;;39.05;7.03;;;;;;;6.88;100.00;99298.72;5001237;28;20204;-44
2023/12/25 05:15:08;;;;;;;41.10;6.72;;;;;;;6.90;100.00;99291.53;5017205;28;20611;-45
2023/12/25 05:17:34;;;;;;;30.55;5.45;;;;;;;6.98;100.00;99286.69;5016572;28;20208;-43
2023/12/25 05:20:00;;;;;;;39.75;7.28;;;;;;;6.92;100.00;99289.66;5001942;28;20267;-43
2023/12/25 05:22:25;;;;;;;39.47;6.38;;;;;;;6.89;100.00;99300.47;5019963;28;20207;-43
2023/12/25 05:24:50;;;;;;;30.88;6.05;;;;;;;6.84;100.00;99298.94;5019363;28;20180;-44
2023/12/25 05:27:16;;;;;;;29.02;5.35;;;;;;;6.86;100.00;99305.91;5020161;28;20264;-44
2023/12/25 05:29:41;;;;;;;37.55;6.30;;;;;;;6.90;100.00;99304.84;5019623;28;20187;-44
2023/12/25 05:32:07;;;;;;;32.45;5.82;;;;;;;6.88;100.00;99311.19;5017554;28;20208;-43
2023/12/25 05:34:32;;;;;;;31.23;5.55;;;;;;;6.85;100.00;99314.00;5014678;28;20283;-44
2023/12/25 05:36:58;;;;;;;30.17;5.53;;;;;;;6.76;100.00;99315.28;5017430;28;20767;-43
2023/12/25 05:39:24;;;;;;;31.58;5.15;;;;;;;6.73;100.00;99324.25;5020937;28;20263;-43
2023/12/25 05:41:51;;;;;;;29.83;5.90;;;;;;;6.75;100.00;99317.06;5017809;28;20625;-44
2023/12/25 05:44:16;;;;;;;34.67;6.47;;;;;;;6.72;100.00;99316.38;5018026;28;20468;-43
2023/12/25 05:46:42;;;;;;;37.38;6.63;;;;;;;6.70;100.00;99326.22;5019733;28;21106;-42
2023/12/25 05:49:08;;;;;;;32.25;5.80;;;;;;;6.60;100.00;99326.66;5020440;28;20178;-42
2023/12/25 05:51:33;;;;;;;29.23;5.65;;;;;;;6.62;100.00;99326.56;5019207;28;20180;-42
2023/12/25 05:53:58;;;;;;;31.13;5.63;;;;;;;6.65;100.00;99330.88;5004215;28;20231;-44
2023/12/25 05:56:24;;;;;;;29.95;5.70;;;;;;;6.62;100.00;99320.38;5019895;28;20274;-45
2023/12/25 05:58:50;;;;;;;26.42;6.47;;;;;;;6.52;100.00;99323.47;5022797;28;20567;-43
2023/12/25 06:01:16;;;;;;;26.23;5.18;;;;;;;6.42;100.00;99324.81;5019701;28;20195;-43
2023/12/25 06:03:41;;;;;;;32.80;6.13;;;;;;;6.43;100.00;99334.53;5017207;28;20207;-42
2023/12/25 06:06:07;;;;;;;34.60;5.53;;;;;;;6.47;100.00;99340.56;5024425;28;20180;-45
2023/12/25 06:08:33;;;;;;;29.17;5.55;;;;;;;6.53;100.00;99351.78;5019450;28;20196;-43
2023/12/25 06:10:58;;;;;;;41.38;7.72;;;;;;;6.56;100.00;99364.13;5015367;28;20191;-45
2023/12/25 06:13:24;;;;;;;42.72;6.88;;;;;;;6.62;100.00;99368.28;5017887;28;20235;-43
2023/12/25 06:15:50;;;;;;;34.05;6.35;;;;;;;6.60;100.00;99366.56;5020936;28;20188;-44
2023/12/25 06:18:15;;;;;;;33.40;5.43;;;;;;;6.66;100.00;99368.06;5018105;28;20202;-43
2023/12/25 06:20:41;;;;;;;38.65;6.68;;;;;;;6.60;100.00;99389.63;5018696;28;20176;-42
2023/12/25 06:23:07;;;;;;;27.67;5.88;;;;;;;6.52;100.00;99379.34;5019213;28;20207;-43
2023/12/25 06:25:32;;;;;;;31.98;6.30;;;;;;;6.60;100.00;99389.63;5015017;28;20233;-43
2023/12/25 06:27:58;;;;;;;27.35;5.32;;;;;;;6.50;100.00;99381.22;5017940;28;20604;-43
2023/12/25 06:30:23;;;;;;;27.25;5.32;;;;;;;6.47;100.00;99383.13;5021299;28;20241;-44
2023/12/25 06:32:49;;;;;;;37.88;6.38;;;;;;;6.48;100.00;99399.03;5014838;28;20258;-43
2023/12/25 06:35:14;;;;;;;38.38;5.85;;;;;;;6.48;100.00;99395.53;5000041;28;20192;-47
2023/12/25 06:37:40;;;;;;;26.30;5.32;;;;;;;6.46;100.00;99397.38;5016925;28;20487;-45
2023/12/25 06:40:06;;;;;;;33.45;5.45;;;;;;;6.42;100.00;99412.59;5017787;28;20267;-43
2023/12/25 06:42:31;;;;;;;27.80;5.50;;;;;;;6.13;100.00;99436.00;5015465;28;20215;-45
2023/12/25 06:44:57;;;;;;;34.42;5.45;;;;;;;5.82;100.00;99452.34;5017827;28;20815;-43
2023/12/25 06:47:22;;;;;;;17.60;4.20;;;;;;;5.63;100.00;99452.22;5014795;28;20212;-44
2023/12/25 06:49:48;;;;;;;21.00;3.90;;;;;;;5.50;100.00;99443.88;5018729;28;20180;-45
2023/12/25 06:52:13;;;;;;;20.45;3.45;;;;;;;5.41;100.00;99456.66;5019271;28;20200;-44
2023/12/25 06:54:39;;;;;;;22.95;4.35;;;;;;;5.40;100.00;99437.22;5021855;28;20183;-43
2023/12/25 06:57:04;;;;;;;19.77;3.75;;;;;;;5.37;100.00;99456.75;5018528;28;20204;-42
2023/12/25 06:59:30;;;;;;;22.52;3.85;;;;;;;5.38;100.00;99449.69;5015007;28;20220;-43
2023/12/25 07:01:55;;;;;;;17.55;3.47;;;;;;;5.39;100.00;99445.22;5018108;28;20185;-43
2023/12/25 07:04:22;;;;;;;12.93;3.03;;;;;;;5.35;100.00;99444.47;5017125;28;20650;-43
2023/12/25 07:06:47;;;;;;;17.77;3.47;;;;;;;5.34;100.00;99446.28;5015955;28;20631;-43
2023/12/25 07:09:16;;;;;;;17.27;3.30;;;;;;;5.39;100.00;99459.38;5019642;28;20205;-45
2023/12/25 07:11:42;;;;;;;16.83;3.15;;;;;;;5.40;100.00;99458.47;5019703;28;21081;-45
2023/12/25 07:14:08;;;;;;;19.33;3.20;;;;;;;5.42;100.00;99461.91;5017354;28;20248;-45
2023/12/25 07:16:33;;;;;;;19.50;3.75;;;;;;;5.45;100.00;99451.16;5018778;28;20207;-46
2023/12/25 07:18:59;;;;;;;20.52;4.05;;;;;;;5.44;100.00;99470.66;5019475;28;20187;-45
2023/12/25 07:21:25;;;;;;;19.88;3.65;;;;;;;5.40;100.00;99452.25;5000580;28;20195;-46
2023/12/25 07:23:52;;;;;;;21.75;4.10;;;;;;;5.39;100.00;99462.03;5018476;28;20204;-42
2023/12/25 07:26:19;;;;;;;19.23;3.38;;;;;;;5.41;100.00;99472.59;5016744;28;20344;-43
2023/12/25 07:28:45;;;;;;;23.48;3.90;;;;;;;5.38;100.00;99478.91;5020658;28;20734;-44
2023/12/25 07:31:11;;;;;;;32.10;4.75;;;;;;;5.46;100.00;99487.41;5022349;28;20236;-43
2023/12/25 07:33:36;;;;;;;19.88;3.97;;;;;;;5.45;100.00;99506.09;5019607;28;20200;-46
2023/12/25 07:36:04;;;;;;;30.77;4.25;;;;;;;5.55;100.00;99516.31;5020478;28;20651;-43
2023/12/25 07:38:29;;;;;;;22.85;4.65;;;;;;;5.53;100.00;99530.53;5023455;28;20254;-44
2023/12/25 07:40:57;;;;;;;26.77;4.93;;;;;;;5.46;100.00;99523.75;5021109;28;20189;-43
2023/12/25 07:43:22;;;;;;;29.52;5.05;;;;;;;5.42;100.00;99541.56;5022050;28;20296;-43
2023/12/25 07:45:48;;;;;;;26.08;4.68;;;;;;;5.40;100.00;99547.88;5019777;28;21172;-42
2023/12/25 07:48:13;;;;;;;21.15;4.28;;;;;;;5.33;100.00;99550.75;5023565;28;20184;-44
2023/12/25 07:50:39;;;;;;;27.63;5.20;;;;;;;5.34;100.00;99559.63;5026329;28;20246;-44
2023/12/25 07:53:04;;;;;;;31.95;4.93;;;;;;;5.38;100.00;99558.56;5017099;28;20208;-44
2023/12/25 07:55:30;;;;;;;36.70;5.90;;;;;;;5.25;100.00;99563.47;5020497;28;20192;-43
2023/12/25 07:57:56;;;;;;;28.55;4.68;;;;;;;5.28;100.00;99573.97;5017695;28;20290;-43
2023/12/25 08:00:22;;;;;;;25.80;4.38;;;;;;;5.28;100.00;99579.28;5004732;28;20184;-43
2023/12/25 08:02:47;;;;;;;29.80;5.18;;;;;;;5.21;100.00;99572.47;5022632;28;20205;-44
2023/12/25 08:05:13;;;;;;;28.02;4.35;;;;;;;5.16;100.00;99577.97;5020577;28;20175;-44
2023/12/25 08:07:39;;;;;;;25.67;4.85;;;;;;;5.19;100.00;99594.69;5023384;28;20203;-43
2023/12/25 08:10:05;;;;;;;24.38;4.95;;;;;;;5.25;100.00;99600.66;5018301;28;20734;-44
2023/12/25 08:12:30;;;;;;;30.25;5.32;;;;;;;5.34;100.00;99595.00;5000753;28;20199;-43
2023/12/25 08:14:56;;;;;;;20.33;4.00;;;;;;;5.36;100.00;99597.59;5017171;28;20219;-45
2023/12/25 08:17:21;;;;;;;18.42;3.67;;;;;;;5.31;100.00;99576.53;5021467;28;20309;-43
2023/12/25 08:19:47;;;;;;;19.58;5.22;;;;;;;5.33;100.00;99606.53;5022598;28;20187;-43
2023/12/25 08:22:12;;;;;;;20.65;3.65;;;;;;;5.27;100.00;99598.81;5018048;28;20643;-43
2023/12/25 08:24:38;;;;;;;19.90;3.85;;;;;;;5.33;100.00;99595.91;5019541;28;20237;-45
2023/12/25 08:27:03;;;;;;;18.70;3.55;;;;;;;5.41;100.00;99595.63;5018224;28;20191;-44
2023/12/25 08:29:29;;;;;;;22.50;4.25;;;;;;;5.39;100.00;99613.41;5020098;28;20283;-43
2023/12/25 08:31:55;;;;;;;21.70;3.20;;;;;;;5.30;100.00;99616.41;5018824;28;20195;-44
2023/12/25 08:34:23;;;;;;;14.80;3.78;;;;;;;5.30;100.00;99603.13;5020080;28;20560;-42
2023/12/25 08:36:49;;;;;;;26.20;4.63;;;;;;;5.31;100.00;99610.16;5021932;28;20673;-42
2023/12/25 08:39:15;;;;;;;24.13;4.03;;;;;;;5.41;100.00;99611.56;5018872;28;20215;-43
2023/12/25 08:41:40;;;;;;;18.20;3.78;;;;;;;5.43;100.00;99619.50;5019510;28;20242;-42
2023/12/25 08:44:06;;;;;;;24.58;4.15;;;;;;;5.46;100.00;99614.91;5015981;28;20621;-43
2023/12/25 08:46:32;;;;;;;22.05;4.22;;;;;;;5.47;100.00;99627.28;5023628;28;20551;-44
2023/12/25 08:48:57;;;;;;;27.92;4.57;;;;;;;5.46;100.00;99624.69;5019537;28;20278;-42
2023/12/25 08:51:23;;;;;;;23.08;3.70;;;;;;;5.45;100.00;99622.97;5018658;28;20187;-44
2023/12/25 08:53:48;;;;;;;24.75;4.00;;;;;;;5.51;100.00;99626.25;5017653;28;20204;-46
2023/12/25 08:56:26;;;;;;;18.15;3.72;;;;;;;5.50;100.00;99637.78;5018144;28;20230;-42
2023/12/25 08:58:52;;;;;;;18.83;4.63;;;;;;;5.50;100.00;99635.13;5002027;28;20231;-43
2023/12/25 09:01:18;;;;;;;26.48;4.75;;;;;;;5.47;100.00;99632.59;5018816;28;20535;-43
2023/12/25 09:03:44;;;;;;;25.15;4.10;;;;;;;5.52;100.00;99643.06;5018261;28;20208;-44
2023/12/25 09:06:09;;;;;;;28.45;4.32;;;;;;;5.46;100.00;99636.16;5017556;28;20552;-44
2023/12/25 09:08:34;;;;;;;21.70;4.18;;;;;;;5.57;100.00;99639.31;5025167;28;20294;-43
2023/12/25 09:11:00;;;;;;;20.15;3.67;;;;;;;5.56;100.00;99644.69;5022237;28;20253;-45
2023/12/25 09:13:25;;;;;;;28.08;4.93;;;;;;;5.69;99.71;99651.28;5017323;28;20208;-42
2023/12/25 09:15:51;;;;;;;24.45;4.47;;;;;;;5.67;98.95;99642.50;5015272;28;20180;-42
2023/12/25 09:18:16;;;;;;;28.65;4.15;;;;;;;5.76;98.04;99655.44;5021210;28;20261;-42
2023/12/25 09:20:42;;;;;;;25.30;4.78;;;;;;;5.59;97.40;99657.84;5018341;28;20239;-43
2023/12/25 09:23:07;;;;;;;23.23;4.32;;;;;;;5.66;97.36;99655.81;4999117;28;20208;-46
2023/12/25 09:25:33;;;;;;;21.95;4.35;;;;;;;5.61;96.63;99669.28;5019660;28;20188;-43
2023/12/25 09:27:58;;;;;;;15.02;4.00;;;;;;;5.65;95.81;99662.09;5019223;28;20184;-44
2023/12/25 09:30:24;;;;;;;20.65;4.20;;;;;;;5.61;95.93;99661.31;5017709;28;20272;-45
2023/12/25 09:32:49;;;;;;;18.77;3.60;;;;;;;5.65;94.85;99664.75;5017624;28;20651;-43
2023/12/25 09:35:15;;;;;;;19.90;3.75;;;;;;;5.61;95.07;99653.34;5017168;28;20188;-44
2023/12/25 09:37:42;;;;;;;20.40;4.00;;;;;;;5.64;94.56;99668.31;5020041;28;20242;-43
2023/12/25 09:40:08;;;;;;;22.85;4.90;;;;;;;5.68;93.95;99669.94;5017778;28;20589;-44
2023/12/25 09:42:33;;;;;;;15.48;4.00;;;;;;;5.76;93.31;99668.72;5019578;28;20690;-43
2023/12/25 09:44:59;;;;;;;15.85;3.22;;;;;;;5.72;93.14;99660.91;5015091;28;20189;-43
2023/12/25 09:47:25;;;;;;;17.08;4.03;;;;;;;5.87;92.31;99675.44;5018773;28;20180;-44
2023/12/25 09:49:53;;;;;;;20.65;3.70;;;;;;;5.92;91.68;99673.47;5018064;28;20196;-46
2023/12/25 09:52:20;;;;;;;15.10;3.63;;;;;;;6.06;91.00;99665.88;5014190;28;20206;-43
2023/12/25 09:54:45;;;;;;;19.70;3.70;;;;;;;5.89;90.62;99653.19;5018251;28;20206;-44
2023/12/25 09:57:13;;;;;;;23.13;4.15;;;;;;;5.92;90.51;99678.78;5019415;28;20636;-45
2023/12/25 09:59:39;;;;;;;25.10;4.18;;;;;;;5.93;90.01;99675.22;5018063;28;20733;-44
2023/12/25 10:02:06;;;;;;;15.50;3.28;;;;;;;6.00;90.19;99678.53;5017375;28;20676;-44
2023/12/25 10:04:34;;;;;;;18.10;3.35;;;;;;;6.12;90.07;99686.91;5018960;28;20192;-44
2023/12/25 10:07:00;;;;;;;22.27;4.07;;;;;;;6.12;89.74;99678.94;5020694;28;20195;-46
2023/12/25 10:09:25;;;;;;;19.70;4.40;;;;;;;6.29;89.29;99680.06;5016380;28;20346;-42
2023/12/25 10:11:51;;;;;;;19.67;3.50;;;;;;;6.31;88.81;99676.41;5016567;28;20188;-43
2023/12/25 10:14:16;;;;;;;15.55;2.97;;;;;;;6.29;88.59;99672.09;5016027;28;20647;-43
2023/12/25 10:16:41;;;;;;;24.33;4.28;;;;;;;6.23;88.20;99683.84;5019421;28;20255;-44
2023/12/25 10:19:07;;;;;;;19.40;3.70;;;;;;;6.09;88.29;99697.66;5016791;28;20201;-44
2023/12/25 10:21:43;;;;;;;21.52;4.15;;;;;;;6.05;88.39;99689.84;5021060;28;20188;-43
2023/12/25 10:24:14;;;;;;;20.92;4.60;;;;;;;6.11;88.28;99703.78;5019598;28;20188;-44
2023/12/25 10:26:40;;;;;;;19.85;3.80;;;;;;;6.21;88.60;99714.94;5022759;28;20203;-43
2023/12/25 10:29:07;;;;;;;19.60;4.07;;;;;;;6.26;88.20;99717.44;5001550;28;20260;-43
2023/12/25 10:31:33;;;;;;;16.75;3.58;;;;;;;6.29;87.48;99704.00;5019259;28;20219;-42
2023/12/25 10:33:59;;;;;;;20.10;3.78;;;;;;;6.32;86.99;99696.78;5016552;28;20351;-43
2023/12/25 10:36:26;;;;;;;20.20;4.32;;;;;;;6.37;87.24;99696.59;5018560;28;20173;-43
2023/12/25 10:38:51;;;;;;;21.45;3.42;;;;;;;6.32;86.77;99695.88;5018902;28;20655;-43
2023/12/25 10:41:28;;;;;;;20.05;3.97;;;;;;;6.40;86.56;99693.81;5019364;28;20183;-44
2023/12/25 10:43:58;;;;;;;15.48;3.28;;;;;;;6.35;86.82;99703.78;5019613;28;20577;-44
2023/12/25 10:46:34;;;;;;;17.70;3.97;;;;;;;6.30;86.99;99711.94;5020599;28;20194;-43
2023/12/25 10:49:01;;;;;;;22.65;3.90;;;;;;;6.32;87.44;99706.53;5016873;28;20243;-42
2023/12/25 10:51:31;;;;;;;21.27;3.83;;;;;;;6.43;86.96;99706.13;5015618;28;20561;-43
2023/12/25 10:54:02;;;;;;;17.95;3.40;;;;;;;6.40;86.18;99705.31;5022179;28;20211;-44
2023/12/25 10:56:31;;;;;;;18.63;3.47;;;;;;;6.35;86.12;99698.44;5015559;28;20275;-44
2023/12/25 10:59:03;;;;;;;17.38;4.07;;;;;;;6.39;85.97;99705.38;5015999;28;20267;-43
2023/12/25 11:01:30;;;;;;;23.38;3.67;;;;;;;6.49;85.41;99697.91;5019177;28;20642;-43
2023/12/25 11:03:57;;;;;;;18.73;3.65;;;;;;;6.50;84.57;99687.19;5015911;28;20210;-44
2023/12/25 11:06:22;;;;;;;20.77;3.60;;;;;;;6.40;84.63;99685.81;5019448;28;20263;-42
2023/12/25 11:08:48;;;;;;;18.90;3.63;;;;;;;6.56;84.29;99705.59;5019423;28;20280;-43
2023/12/25 11:11:14;;;;;;;16.35;3.03;;;;;;;6.60;83.53;99688.56;5065853;23;20544;-45
2023/12/25 11:13:41;;;;;;;22.27;4.10;;;;;;;6.58;83.68;99685.09;5040560;28;20256;-45
2023/12/25 11:16:07;;;;;;;20.30;3.95;;;;;;;6.54;83.32;99686.16;5043220;28;20183;-44
2023/12/25 11:18:39;;;;;;;19.88;3.95;;;;;;;6.66;82.42;99678.59;5044150;28;20219;-48
2023/12/25 11:21:12;;;;;;;16.75;3.05;;;;;;;6.74;82.21;99682.69;5041158;28;20287;-45